Time;durP1;ratioP1;P1;durP2;ratioP2;P2;SDS_P1;SDS_P2;PMS_P1;PMS_P2;Temp;Humidity;BMP_temperature;BMP_pressure;BME280_temperature;BME280_humidity;BME280_pressure;Samples;Min_cycle;Max_cycle;Signal;HPM_P1;HPM_P2
2023/01/09 00:01:02;;;;;;;1.77;1.17;;;9.30;99.90;;;;;;5044729;28;20462;-73
2023/01/09 00:03:29;;;;;;;1.20;0.90;;;9.30;99.90;;;;;;5048664;28;20456;-73
2023/01/09 00:05:56;;;;;;;1.60;1.47;;;9.30;99.90;;;;;;5051283;28;20479;-73
2023/01/09 00:08:23;;;;;;;1.20;1.00;;;9.30;99.90;;;;;;5051194;28;20486;-73
2023/01/09 00:10:51;;;;;;;2.53;1.50;;;9.30;99.90;;;;;;5058484;28;21044;-74
2023/01/09 00:13:19;;;;;;;1.83;1.47;;;9.20;99.90;;;;;;5052246;28;20476;-73
2023/01/09 00:15:48;;;;;;;2.10;1.40;;;9.20;99.90;;;;;;5052129;28;20434;-72
2023/01/09 00:18:16;;;;;;;1.00;0.90;;;9.10;99.90;;;;;;5044117;28;20478;-74
2023/01/09 00:20:43;;;;;;;2.50;1.33;;;9.00;99.90;;;;;;5050783;28;20937;-74
2023/01/09 00:23:10;;;;;;;1.10;0.90;;;9.10;99.90;;;;;;5050948;28;20910;-74
2023/01/09 00:25:37;;;;;;;2.30;1.30;;;9.10;99.90;;;;;;5055420;28;20809;-74
2023/01/09 00:28:04;;;;;;;4.50;1.30;;;9.00;99.90;;;;;;5046450;28;20494;-74
2023/01/09 00:30:31;;;;;;;1.10;0.97;;;9.00;99.90;;;;;;5050132;28;20883;-74
2023/01/09 00:32:58;;;;;;;1.57;1.40;;;9.00;99.90;;;;;;5052081;28;20512;-74
2023/01/09 00:35:28;;;;;;;1.20;1.00;;;9.00;99.90;;;;;;5043662;28;20824;-74
2023/01/09 00:37:55;;;;;;;1.03;0.87;;;9.10;99.90;;;;;;5045974;28;20475;-74
2023/01/09 00:40:22;;;;;;;1.00;0.80;;;9.00;99.90;;;;;;5048371;28;20884;-74
2023/01/09 00:42:53;;;;;;;1.93;1.10;;;9.10;99.90;;;;;;5047277;28;20823;-73
2023/01/09 00:45:27;;;;;;;1.20;0.97;;;9.00;99.90;;;;;;5049574;28;20520;-74
2023/01/09 00:47:57;;;;;;;1.20;1.03;;;9.00;99.90;;;;;;5044361;28;20485;-74
2023/01/09 00:50:31;;;;;;;2.20;2.00;;;9.00;99.90;;;;;;5050621;28;21208;-74
2023/01/09 00:53:03;;;;;;;1.60;1.10;;;9.00;99.90;;;;;;5043610;28;20462;-74
2023/01/09 00:55:30;;;;;;;1.00;0.80;;;9.00;99.90;;;;;;5052811;28;20466;-74
2023/01/09 00:57:57;;;;;;;0.90;0.60;;;9.00;99.90;;;;;;5047858;28;20466;-74
2023/01/09 01:00:24;;;;;;;1.00;0.80;;;8.90;99.90;;;;;;5050698;28;20441;-74
2023/01/09 01:02:51;;;;;;;0.90;0.70;;;8.80;99.90;;;;;;5049297;28;20471;-74
2023/01/09 01:08:10;;;;;;;0.90;0.70;;;8.70;99.90;;;;;;5037530;28;20473;-74
2023/01/09 01:10:37;;;;;;;1.40;1.00;;;8.60;99.90;;;;;;5050457;28;20870;-75
2023/01/09 01:13:04;;;;;;;0.90;0.63;;;8.60;99.90;;;;;;5050225;28;20436;-74
2023/01/09 01:15:32;;;;;;;1.20;0.77;;;8.60;99.90;;;;;;5046649;28;20547;-74
2023/01/09 01:17:59;;;;;;;1.10;0.80;;;8.50;99.90;;;;;;5050209;28;20565;-74
2023/01/09 01:20:26;;;;;;;1.03;0.80;;;8.60;99.90;;;;;;5044612;28;20528;-73
2023/01/09 01:22:53;;;;;;;1.00;0.70;;;8.40;99.90;;;;;;5047406;28;20505;-74
2023/01/09 01:25:22;;;;;;;2.20;0.90;;;8.60;99.90;;;;;;5044135;28;20901;-74
2023/01/09 01:27:49;;;;;;;5.13;0.93;;;8.60;99.90;;;;;;5049110;28;20575;-74
2023/01/09 01:30:17;;;;;;;1.17;0.83;;;8.50;99.90;;;;;;5047500;28;20487;-75
2023/01/09 01:32:44;;;;;;;1.43;0.80;;;8.60;99.90;;;;;;5049448;28;20473;-74
2023/01/09 01:35:11;;;;;;;0.90;0.70;;;8.60;99.90;;;;;;5057150;28;20462;-74
2023/01/09 01:37:39;;;;;;;1.10;0.90;;;8.70;99.90;;;;;;5050591;28;20452;-73
2023/01/09 01:40:08;;;;;;;1.57;0.83;;;8.60;99.90;;;;;;5046665;28;20444;-74
2023/01/09 01:42:36;;;;;;;1.00;0.70;;;8.60;99.90;;;;;;5050904;28;20509;-74
2023/01/09 01:45:09;;;;;;;1.00;0.70;;;8.50;99.90;;;;;;5052295;28;20979;-73
2023/01/09 01:47:48;;;;;;;0.90;0.60;;;8.50;99.90;;;;;;5054950;28;20500;-73
2023/01/09 01:50:21;;;;;;;0.90;0.70;;;8.50;99.90;;;;;;5050446;28;20459;-73
2023/01/09 01:52:52;;;;;;;1.30;1.20;;;8.50;99.90;;;;;;5050581;28;20457;-73
2023/01/09 01:55:20;;;;;;;0.90;0.70;;;8.40;99.90;;;;;;5050001;28;20434;-73
2023/01/09 01:57:52;;;;;;;1.00;0.90;;;8.40;99.90;;;;;;5048001;28;20882;-73
2023/01/09 02:00:22;;;;;;;1.03;0.90;;;8.40;99.90;;;;;;5041895;28;20463;-73
2023/01/09 02:02:49;;;;;;;1.00;0.80;;;8.50;99.90;;;;;;5042183;28;21057;-73
2023/01/09 02:05:17;;;;;;;1.20;1.00;;;8.50;99.90;;;;;;5047228;28;20493;-73
2023/01/09 02:07:44;;;;;;;1.07;0.87;;;8.50;99.90;;;;;;5044509;28;20470;-73
2023/01/09 02:10:11;;;;;;;1.20;1.00;;;8.50;99.90;;;;;;5043453;28;20560;-74
2023/01/09 02:12:39;;;;;;;3.03;0.77;;;8.40;99.90;;;;;;5048313;28;20937;-74
2023/01/09 02:15:10;;;;;;;5.07;1.07;;;8.50;99.90;;;;;;5047862;28;20461;-74
2023/01/09 02:18:07;;;;;;;2.00;0.80;;;8.50;99.90;;;;;;5045572;28;20506;-74
2023/01/09 02:20:45;;;;;;;1.20;0.90;;;8.50;99.90;;;;;;5012475;28;20485;-74
2023/01/09 02:23:49;;;;;;;1.50;1.00;;;8.50;99.90;;;;;;5050410;28;20446;-74
2023/01/09 02:27:13;;;;;;;1.00;0.87;;;8.50;99.90;;;;;;5025041;28;20453;-74
2023/01/09 02:30:12;;;;;;;1.63;0.90;;;8.50;99.90;;;;;;4966611;28;20456;-73
2023/01/09 02:32:49;;;;;;;1.20;0.90;;;8.40;99.90;;;;;;5044889;28;20427;-73
2023/01/09 02:35:26;;;;;;;1.00;0.80;;;8.40;99.90;;;;;;5046167;28;20844;-74
2023/01/09 02:38:02;;;;;;;1.00;0.80;;;8.40;99.90;;;;;;5041008;28;20508;-74
2023/01/09 02:40:34;;;;;;;1.07;0.80;;;8.30;99.90;;;;;;5046887;28;20456;-74
2023/01/09 02:43:03;;;;;;;1.20;1.10;;;8.20;99.90;;;;;;5043965;28;20507;-74
2023/01/09 02:45:30;;;;;;;1.30;1.00;;;8.20;99.90;;;;;;5049116;28;20462;-74
2023/01/09 02:47:58;;;;;;;1.37;1.07;;;8.10;99.90;;;;;;5043990;28;20459;-74
2023/01/09 02:50:31;;;;;;;1.00;0.83;;;8.10;99.90;;;;;;5046469;28;20538;-74
2023/01/09 02:53:33;;;;;;;1.70;1.03;;;8.20;99.90;;;;;;5048475;28;20479;-74
2023/01/09 02:56:11;;;;;;;2.00;0.90;;;8.20;99.90;;;;;;5048717;28;21007;-74
2023/01/09 02:59:07;;;;;;;2.23;0.80;;;8.20;99.90;;;;;;5052220;28;20476;-74
2023/01/09 03:01:43;;;;;;;1.10;0.83;;;8.20;99.90;;;;;;5050240;28;20482;-74
2023/01/09 03:04:22;;;;;;;1.03;0.93;;;8.20;99.90;;;;;;5050008;28;20518;-74
2023/01/09 03:06:57;;;;;;;1.20;1.00;;;8.10;99.90;;;;;;5051720;28;20446;-74
2023/01/09 03:09:28;;;;;;;1.27;1.17;;;8.00;99.90;;;;;;5050790;28;20789;-74
2023/01/09 03:12:10;;;;;;;1.43;0.97;;;8.00;99.90;;;;;;5047759;28;20515;-74
2023/01/09 03:14:44;;;;;;;1.37;1.13;;;8.00;99.90;;;;;;5044026;28;20472;-74
2023/01/09 03:17:15;;;;;;;1.10;0.83;;;8.00;99.90;;;;;;5045932;28;20502;-74
2023/01/09 03:19:46;;;;;;;1.10;0.80;;;8.00;99.90;;;;;;5045624;28;20807;-74
2023/01/09 03:22:13;;;;;;;1.13;0.83;;;8.10;99.90;;;;;;5039230;28;20869;-74
2023/01/09 03:24:40;;;;;;;1.50;1.10;;;8.20;99.90;;;;;;5046715;28;20530;-74
2023/01/09 03:27:08;;;;;;;1.70;0.97;;;8.20;99.90;;;;;;5040804;28;20560;-74
2023/01/09 03:29:36;;;;;;;1.10;0.90;;;8.30;99.90;;;;;;5046724;28;20463;-74
2023/01/09 03:32:03;;;;;;;1.10;0.90;;;8.30;99.90;;;;;;5050114;28;20486;-74
2023/01/09 03:34:30;;;;;;;1.70;1.10;;;8.40;99.90;;;;;;5049594;28;21001;-74
2023/01/09 03:36:58;;;;;;;1.30;1.20;;;8.30;99.90;;;;;;5044649;28;20511;-74
2023/01/09 03:39:25;;;;;;;2.27;1.37;;;8.40;99.90;;;;;;5049076;28;20477;-74
2023/01/09 03:41:51;;;;;;;1.37;1.10;;;8.40;99.90;;;;;;5050148;28;20523;-74
2023/01/09 03:44:18;;;;;;;1.57;1.10;;;8.40;99.90;;;;;;5051060;28;20425;-75
2023/01/09 03:46:49;;;;;;;4.80;1.77;;;8.30;99.90;;;;;;5046682;28;20465;-74
2023/01/09 03:49:16;;;;;;;0.90;0.60;;;8.20;99.90;;;;;;5044600;28;20581;-74
2023/01/09 03:51:43;;;;;;;1.00;0.77;;;8.20;99.90;;;;;;5043197;28;20827;-74
2023/01/09 03:54:12;;;;;;;3.77;1.57;;;8.30;99.90;;;;;;5048179;28;20692;-73
2023/01/09 03:56:39;;;;;;;1.53;1.27;;;8.30;99.90;;;;;;5047281;28;21008;-74
2023/01/09 03:59:05;;;;;;;1.53;1.20;;;8.20;99.90;;;;;;5043641;28;20492;-74
2023/01/09 04:01:33;;;;;;;3.20;1.60;;;8.20;99.90;;;;;;5048618;28;20456;-74
2023/01/09 04:04:00;;;;;;;2.03;1.37;;;8.10;99.90;;;;;;5048947;28;20439;-75
2023/01/09 04:06:27;;;;;;;4.07;1.70;;;8.10;99.90;;;;;;5045782;28;20564;-75
2023/01/09 04:08:53;;;;;;;4.00;1.50;;;8.20;99.90;;;;;;5049897;28;20492;-74
2023/01/09 04:11:22;;;;;;;2.87;1.60;;;8.40;99.90;;;;;;5053082;28;20565;-73
2023/01/09 04:13:49;;;;;;;1.27;1.10;;;8.30;99.90;;;;;;5050947;28;20465;-73
2023/01/09 04:16:16;;;;;;;1.90;1.20;;;8.20;99.90;;;;;;5050508;28;20457;-74
2023/01/09 04:18:42;;;;;;;3.67;1.73;;;8.30;99.90;;;;;;5050070;28;20472;-74
2023/01/09 04:21:09;;;;;;;2.07;1.23;;;8.40;99.90;;;;;;5055305;28;20494;-75
2023/01/09 04:23:37;;;;;;;1.87;1.40;;;8.40;99.90;;;;;;5062924;28;20458;-75
2023/01/09 04:26:04;;;;;;;1.43;1.33;;;8.40;99.90;;;;;;5049626;28;20551;-75
2023/01/09 04:28:32;;;;;;;1.10;0.90;;;8.50;99.90;;;;;;5048236;28;20470;-74
2023/01/09 04:30:59;;;;;;;1.50;1.20;;;8.50;99.90;;;;;;5050479;28;20601;-75
2023/01/09 04:33:26;;;;;;;1.27;1.00;;;8.50;99.90;;;;;;5046389;28;20499;-75
2023/01/09 04:35:53;;;;;;;6.80;1.73;;;8.30;99.90;;;;;;5041943;28;20944;-75
2023/01/09 04:38:20;;;;;;;1.37;1.00;;;8.20;99.90;;;;;;5054803;28;20468;-74
2023/01/09 04:40:47;;;;;;;1.20;1.00;;;8.10;99.90;;;;;;5051114;28;20436;-75
2023/01/09 04:43:14;;;;;;;3.00;1.60;;;8.10;99.90;;;;;;5049516;28;20552;-74
2023/01/09 04:45:43;;;;;;;2.00;1.60;;;8.10;99.90;;;;;;5046369;28;20444;-75
2023/01/09 04:48:13;;;;;;;4.07;1.70;;;8.10;99.90;;;;;;5048113;28;20544;-75
2023/01/09 04:50:39;;;;;;;5.53;1.43;;;8.10;99.90;;;;;;5046776;28;20972;-74
2023/01/09 04:53:06;;;;;;;1.77;1.30;;;8.20;99.90;;;;;;5050366;28;20539;-75
2023/01/09 04:55:33;;;;;;;3.40;1.80;;;8.10;99.90;;;;;;5044466;28;20496;-75
2023/01/09 04:58:00;;;;;;;2.90;1.50;;;8.00;99.90;;;;;;5047941;28;20580;-75
2023/01/09 05:00:28;;;;;;;2.17;1.77;;;8.00;99.90;;;;;;5046815;28;20517;-74
2023/01/09 05:02:56;;;;;;;3.00;1.50;;;8.00;99.90;;;;;;5046263;28;20428;-75
2023/01/09 05:05:23;;;;;;;1.20;1.00;;;7.90;99.90;;;;;;5044927;28;20455;-74
2023/01/09 05:07:50;;;;;;;2.40;1.47;;;7.80;99.90;;;;;;5045420;28;20488;-74
2023/01/09 05:10:17;;;;;;;1.57;1.37;;;7.70;99.90;;;;;;5045206;28;20472;-74
2023/01/09 05:12:44;;;;;;;2.10;1.60;;;7.70;99.90;;;;;;5051411;28;20456;-74
2023/01/09 05:15:12;;;;;;;1.77;1.50;;;7.70;99.90;;;;;;5048765;28;20458;-74
2023/01/09 05:17:38;;;;;;;1.77;1.57;;;7.60;99.90;;;;;;5044967;28;20468;-74
2023/01/09 05:20:10;;;;;;;2.27;1.57;;;7.60;99.90;;;;;;5049194;28;20543;-74
2023/01/09 05:22:37;;;;;;;2.23;1.20;;;7.50;99.90;;;;;;5046581;28;20435;-74
2023/01/09 05:25:04;;;;;;;1.50;1.20;;;7.50;99.90;;;;;;5050165;28;20465;-74
2023/01/09 05:27:31;;;;;;;4.43;1.70;;;7.50;99.90;;;;;;5043531;28;20469;-74
2023/01/09 05:29:58;;;;;;;2.60;1.90;;;7.40;99.90;;;;;;5043576;28;21048;-74
2023/01/09 05:32:25;;;;;;;1.67;1.20;;;7.40;99.90;;;;;;5047637;28;20501;-74
2023/01/09 05:34:55;;;;;;;1.20;1.03;;;7.40;99.90;;;;;;5048231;28;20535;-74
2023/01/09 05:37:23;;;;;;;4.50;1.87;;;7.40;99.90;;;;;;5049592;28;20473;-74
2023/01/09 05:39:52;;;;;;;1.17;0.90;;;7.50;99.90;;;;;;5048224;28;20438;-74
2023/01/09 05:42:19;;;;;;;1.50;1.40;;;7.50;99.90;;;;;;5011704;28;21017;-74
2023/01/09 05:44:46;;;;;;;1.20;1.00;;;7.60;99.90;;;;;;5050591;28;20463;-75
2023/01/09 05:47:15;;;;;;;3.17;1.20;;;7.60;99.90;;;;;;5054979;28;20463;-75
2023/01/09 05:49:42;;;;;;;3.77;1.30;;;7.60;99.90;;;;;;5061047;28;20532;-74
2023/01/09 05:52:10;;;;;;;1.00;0.80;;;7.70;99.90;;;;;;5052374;28;21019;-74
2023/01/09 05:54:39;;;;;;;1.20;0.97;;;7.70;99.90;;;;;;5051743;28;20458;-74
2023/01/09 05:57:05;;;;;;;1.33;1.23;;;7.80;99.90;;;;;;5058515;28;20479;-74
2023/01/09 05:59:32;;;;;;;1.93;1.00;;;7.80;99.90;;;;;;5049379;28;20449;-75
2023/01/09 06:01:59;;;;;;;1.43;1.03;;;7.70;99.90;;;;;;5049264;28;20482;-74
2023/01/09 06:04:28;;;;;;;1.30;0.90;;;7.70;99.90;;;;;;5051063;28;20540;-74
2023/01/09 06:06:55;;;;;;;1.17;0.90;;;7.70;99.90;;;;;;5054235;28;20432;-74
2023/01/09 06:09:22;;;;;;;2.90;1.33;;;7.70;99.90;;;;;;5050990;28;20542;-74
2023/01/09 06:11:53;;;;;;;3.23;1.27;;;7.60;99.90;;;;;;5048095;28;20449;-74
2023/01/09 06:14:20;;;;;;;1.00;0.70;;;7.70;99.90;;;;;;5051122;28;20912;-74
2023/01/09 06:16:47;;;;;;;3.53;0.90;;;7.80;99.90;;;;;;5041804;28;20485;-74
2023/01/09 06:19:14;;;;;;;1.10;1.00;;;7.80;99.90;;;;;;5039143;28;20476;-73
2023/01/09 06:21:41;;;;;;;1.07;0.80;;;7.80;99.90;;;;;;5052389;28;20492;-74
2023/01/09 06:24:09;;;;;;;1.00;0.80;;;7.90;99.90;;;;;;5041241;28;20520;-73
2023/01/09 06:26:35;;;;;;;3.90;1.23;;;7.90;99.90;;;;;;5045082;28;20498;-74
2023/01/09 06:29:04;;;;;;;1.00;0.70;;;8.00;99.90;;;;;;5046740;28;20543;-75
2023/01/09 06:31:30;;;;;;;1.10;0.80;;;7.90;99.90;;;;;;5049725;28;20544;-74
2023/01/09 06:33:57;;;;;;;1.30;0.90;;;7.90;99.90;;;;;;5051572;28;20905;-74
2023/01/09 06:36:26;;;;;;;2.07;0.83;;;7.80;99.90;;;;;;5050354;28;20449;-73
2023/01/09 06:38:54;;;;;;;1.20;0.90;;;7.90;99.90;;;;;;5043371;28;20456;-73
2023/01/09 06:41:25;;;;;;;2.30;1.00;;;7.90;99.90;;;;;;5053635;28;20454;-73
2023/01/09 06:43:52;;;;;;;2.17;1.83;;;7.90;99.90;;;;;;5049692;28;20528;-73
2023/01/09 06:46:21;;;;;;;1.03;0.90;;;8.00;99.90;;;;;;5044539;28;20528;-74
2023/01/09 06:48:48;;;;;;;4.33;1.07;;;7.90;99.90;;;;;;5048015;28;20900;-74
2023/01/09 06:51:15;;;;;;;3.13;0.80;;;7.90;99.90;;;;;;5041130;28;20437;-73
2023/01/09 06:53:41;;;;;;;2.60;1.10;;;7.90;99.90;;;;;;5045655;28;20527;-74
2023/01/09 06:56:08;;;;;;;5.03;1.40;;;7.80;99.90;;;;;;5042597;28;20429;-74
2023/01/09 06:58:35;;;;;;;2.03;1.20;;;7.80;99.90;;;;;;5031357;28;20592;-74
2023/01/09 07:01:02;;;;;;;1.87;0.90;;;7.80;99.90;;;;;;5043534;28;20523;-74
2023/01/09 07:03:30;;;;;;;1.90;1.40;;;7.80;99.90;;;;;;5051564;28;20475;-74
2023/01/09 07:05:57;;;;;;;1.73;1.37;;;7.80;99.90;;;;;;5047564;28;20560;-74
2023/01/09 07:08:24;;;;;;;7.77;1.50;;;7.90;99.90;;;;;;5056830;28;20449;-74
2023/01/09 07:10:51;;;;;;;3.43;0.80;;;7.80;99.90;;;;;;5047016;28;20508;-74
2023/01/09 07:13:18;;;;;;;2.37;1.73;;;7.80;99.90;;;;;;5059837;28;20543;-74
2023/01/09 07:15:45;;;;;;;2.63;1.00;;;7.80;99.90;;;;;;5061107;28;20530;-75
2023/01/09 07:18:12;;;;;;;1.60;1.17;;;7.80;99.90;;;;;;5046351;28;20460;-73
2023/01/09 07:20:40;;;;;;;2.03;1.70;;;7.90;99.90;;;;;;5060064;28;20504;-74
2023/01/09 07:23:08;;;;;;;1.40;1.30;;;7.90;99.90;;;;;;5050893;28;20553;-74
2023/01/09 07:25:34;;;;;;;4.50;1.83;;;7.90;99.90;;;;;;5048425;28;21009;-74
2023/01/09 07:28:01;;;;;;;1.27;1.00;;;7.90;99.90;;;;;;5053263;28;20460;-74
2023/01/09 07:30:28;;;;;;;2.03;0.90;;;7.80;99.90;;;;;;5044644;28;20582;-74
2023/01/09 07:32:55;;;;;;;1.10;0.93;;;7.80;99.90;;;;;;5048999;28;20852;-74
2023/01/09 07:35:22;;;;;;;1.10;0.83;;;7.90;99.90;;;;;;5045977;28;20563;-74
2023/01/09 07:37:50;;;;;;;4.20;1.47;;;7.80;99.90;;;;;;5049659;28;20552;-73
2023/01/09 07:40:17;;;;;;;1.13;0.80;;;7.90;99.90;;;;;;5037362;28;20988;-73
2023/01/09 07:42:44;;;;;;;1.20;0.73;;;7.90;99.90;;;;;;5049668;28;20462;-73
2023/01/09 07:45:11;;;;;;;5.10;1.20;;;8.00;99.90;;;;;;5047395;28;20968;-73
2023/01/09 07:47:40;;;;;;;8.50;1.20;;;7.90;99.90;;;;;;5042941;28;20460;-73
2023/01/09 07:50:09;;;;;;;2.13;1.20;;;7.90;99.90;;;;;;5050679;28;20507;-74
2023/01/09 07:52:36;;;;;;;2.10;0.80;;;8.00;99.90;;;;;;5046895;28;20425;-73
2023/01/09 07:55:04;;;;;;;2.13;1.23;;;8.10;99.90;;;;;;5034785;28;20459;-73
2023/01/09 07:57:32;;;;;;;1.30;1.17;;;8.10;99.90;;;;;;5015400;28;20476;-74
2023/01/09 08:00:02;;;;;;;1.10;0.90;;;8.10;99.90;;;;;;5054339;28;20459;-74
2023/01/09 08:02:29;;;;;;;2.23;1.10;;;8.10;99.90;;;;;;5045173;28;20522;-73
2023/01/09 08:04:55;;;;;;;4.20;1.07;;;8.10;99.90;;;;;;5051160;28;20491;-73
2023/01/09 08:07:22;;;;;;;11.93;1.43;;;8.10;99.90;;;;;;5013570;28;20922;-74
2023/01/09 08:09:49;;;;;;;2.60;1.30;;;8.10;99.90;;;;;;5051359;28;20455;-74
2023/01/09 08:12:18;;;;;;;1.07;0.87;;;8.10;99.90;;;;;;5050354;28;20439;-74
2023/01/09 08:14:45;;;;;;;1.63;1.00;;;8.10;99.90;;;;;;5005945;28;20449;-74
2023/01/09 08:17:12;;;;;;;1.20;0.80;;;8.00;99.90;;;;;;5049827;28;20468;-74
2023/01/09 08:19:39;;;;;;;1.10;0.83;;;8.10;99.90;;;;;;5049629;28;20443;-74
2023/01/09 08:22:06;;;;;;;1.57;1.47;;;8.20;99.90;;;;;;5047748;28;20492;-75
2023/01/09 08:24:35;;;;;;;1.63;1.10;;;8.30;99.90;;;;;;5054535;28;20527;-74
2023/01/09 08:27:02;;;;;;;6.73;1.50;;;8.30;99.90;;;;;;5049241;28;20518;-76
2023/01/09 08:29:30;;;;;;;1.53;1.00;;;8.30;99.90;;;;;;5052734;28;20523;-75
2023/01/09 08:31:57;;;;;;;1.13;0.80;;;8.20;99.90;;;;;;5048295;28;20538;-74
2023/01/09 08:34:24;;;;;;;2.27;1.37;;;8.20;99.90;;;;;;5053945;28;20420;-76
2023/01/09 08:36:52;;;;;;;2.67;1.10;;;8.20;99.90;;;;;;5048030;28;20433;-74
2023/01/09 08:39:19;;;;;;;2.03;1.00;;;8.10;99.90;;;;;;5051505;28;20440;-75
2023/01/09 08:47:19;;;;;;;1.33;0.80;;;8.20;99.90;;;;;;5052734;28;20451;-75
2023/01/09 08:49:46;;;;;;;1.10;1.00;;;8.30;99.90;;;;;;5043712;28;20508;-74
2023/01/09 08:52:14;;;;;;;1.37;1.10;;;8.10;99.90;;;;;;5052839;28;20518;-75
2023/01/09 08:54:40;;;;;;;1.30;0.90;;;8.10;99.90;;;;;;5053379;28;20445;-75
2023/01/09 08:57:08;;;;;;;12.97;1.00;;;8.20;99.90;;;;;;5052317;28;20495;-75
2023/01/09 08:59:36;;;;;;;0.90;0.80;;;8.20;99.90;;;;;;5053381;28;20862;-76
2023/01/09 09:02:03;;;;;;;1.00;0.90;;;8.30;99.90;;;;;;5053114;28;20453;-76
2023/01/09 09:04:30;;;;;;;2.00;1.63;;;8.20;99.90;;;;;;5046538;28;20434;-74
2023/01/09 09:06:57;;;;;;;1.00;0.80;;;8.10;99.90;;;;;;5036157;28;20440;-75
2023/01/09 09:09:25;;;;;;;1.30;1.20;;;8.00;99.90;;;;;;5052840;28;20502;-75
2023/01/09 09:11:52;;;;;;;1.87;1.17;;;8.10;99.90;;;;;;5042430;28;20430;-74
2023/01/09 09:17:05;;;;;;;1.20;1.00;;;8.20;99.90;;;;;;5052329;28;20458;-74
2023/01/09 09:19:32;;;;;;;1.47;1.00;;;8.10;99.90;;;;;;5050951;28;20503;-74
2023/01/09 09:21:59;;;;;;;3.10;1.53;;;8.20;99.90;;;;;;5055526;28;20820;-74
2023/01/09 09:24:25;;;;;;;1.87;0.80;;;8.20;99.90;;;;;;5052973;28;20887;-75
2023/01/09 09:26:53;;;;;;;1.20;0.90;;;8.30;99.90;;;;;;5045848;28;20519;-75
2023/01/09 09:29:20;;;;;;;3.37;1.50;;;8.20;99.90;;;;;;5038745;28;20887;-74
2023/01/09 09:31:47;;;;;;;3.80;1.20;;;8.20;99.90;;;;;;5053488;28;20472;-74
2023/01/09 09:34:16;;;;;;;1.30;0.90;;;8.20;99.90;;;;;;5040808;28;20493;-76
2023/01/09 09:36:42;;;;;;;1.37;1.00;;;8.20;99.90;;;;;;5047812;28;20933;-73
2023/01/09 09:39:09;;;;;;;1.20;1.10;;;8.20;99.90;;;;;;5042740;28;20628;-74
2023/01/09 09:44:59;;;;;;;1.30;0.93;;;8.20;99.90;;;;;;5052605;28;20515;-75
2023/01/09 09:47:42;;;;;;;1.20;1.10;;;8.30;99.90;;;;;;5051219;28;20571;-75
2023/01/09 09:50:22;;;;;;;1.47;1.00;;;8.20;99.90;;;;;;5046600;28;20485;-75
2023/01/09 09:52:52;;;;;;;1.40;1.20;;;8.30;99.90;;;;;;5054360;28;20445;-75
2023/01/09 09:55:24;;;;;;;1.10;1.00;;;8.30;99.90;;;;;;5048623;28;20455;-74
2023/01/09 09:57:52;;;;;;;2.50;2.30;;;8.30;99.90;;;;;;5047508;28;20532;-74
2023/01/09 10:00:21;;;;;;;1.10;0.97;;;8.20;99.90;;;;;;5044967;28;20425;-74
2023/01/09 10:02:53;;;;;;;3.37;2.23;;;8.20;99.90;;;;;;5042344;28;20432;-75
2023/01/09 10:05:38;;;;;;;1.10;1.00;;;8.30;99.90;;;;;;5049624;28;20449;-75
2023/01/09 10:08:14;;;;;;;0.90;0.80;;;8.40;99.90;;;;;;5049394;28;20444;-75
2023/01/09 10:10:49;;;;;;;1.73;1.10;;;8.50;99.90;;;;;;5048509;28;20964;-75
2023/01/09 10:16:10;;;;;;;1.63;1.13;;;8.60;99.90;;;;;;5040972;28;20510;-75
2023/01/09 10:18:52;;;;;;;1.30;1.20;;;8.70;99.90;;;;;;5040086;28;20548;-75
2023/01/09 10:21:27;;;;;;;1.20;1.10;;;8.70;99.90;;;;;;5047448;28;20822;-75
2023/01/09 10:24:13;;;;;;;1.03;0.80;;;8.70;99.90;;;;;;5049328;28;20498;-75
2023/01/09 10:26:46;;;;;;;2.43;1.10;;;8.70;99.90;;;;;;5052137;28;20443;-75
2023/01/09 10:29:40;;;;;;;3.77;0.90;;;8.50;99.90;;;;;;5046289;28;20514;-76
2023/01/09 10:32:27;;;;;;;2.13;1.07;;;8.50;99.90;;;;;;5050922;28;20960;-75
2023/01/09 10:35:14;;;;;;;1.77;0.90;;;8.60;99.90;;;;;;5062380;28;20485;-75
2023/01/09 10:37:45;;;;;;;2.20;1.20;;;8.80;99.90;;;;;;5045667;28;20877;-76
2023/01/09 10:40:22;;;;;;;2.47;1.20;;;9.00;99.90;;;;;;5043777;28;20532;-75
2023/01/09 10:42:52;;;;;;;1.10;0.90;;;9.20;99.90;;;;;;5051474;28;20811;-75
2023/01/09 10:45:24;;;;;;;3.67;1.20;;;9.30;99.90;;;;;;5044066;28;20433;-75
2023/01/09 10:47:53;;;;;;;1.10;0.97;;;9.20;99.90;;;;;;5051119;28;20465;-75
2023/01/09 10:50:22;;;;;;;1.20;0.87;;;9.30;99.90;;;;;;5026089;28;20457;-75
2023/01/09 10:52:52;;;;;;;1.10;0.90;;;9.20;99.90;;;;;;5047995;28;20868;-74
2023/01/09 10:55:27;;;;;;;2.17;1.20;;;9.00;99.90;;;;;;5046841;28;20478;-74
2023/01/09 10:58:01;;;;;;;1.40;1.20;;;9.10;99.90;;;;;;5056060;28;20670;-75
2023/01/09 11:00:29;;;;;;;1.43;0.83;;;9.10;99.90;;;;;;5051517;28;20833;-75
2023/01/09 11:02:56;;;;;;;1.23;1.10;;;9.20;99.90;;;;;;5044135;28;20517;-75
2023/01/09 11:05:26;;;;;;;2.47;1.30;;;9.20;99.90;;;;;;5054685;28;20872;-75
2023/01/09 11:07:58;;;;;;;1.23;1.10;;;9.30;99.90;;;;;;5045145;28;20476;-75
2023/01/09 11:10:47;;;;;;;1.83;1.20;;;9.30;99.90;;;;;;5014513;28;20496;-74
2023/01/09 11:13:18;;;;;;;1.47;1.13;;;9.10;99.90;;;;;;5051397;28;20436;-74
2023/01/09 11:15:45;;;;;;;1.10;0.90;;;9.10;99.90;;;;;;5050450;28;20445;-74
2023/01/09 11:18:18;;;;;;;1.53;1.10;;;9.10;99.90;;;;;;5044464;28;20976;-74
2023/01/09 11:20:46;;;;;;;11.20;1.30;;;9.10;99.90;;;;;;5040681;28;20487;-75
2023/01/09 11:23:38;;;;;;;1.20;1.00;;;9.20;99.90;;;;;;5054464;28;20830;-74
2023/01/09 11:26:05;;;;;;;1.23;0.80;;;9.20;99.90;;;;;;5030530;28;20466;-74
2023/01/09 11:28:32;;;;;;;2.17;1.30;;;9.10;99.90;;;;;;5046178;28;20515;-74
2023/01/09 11:31:01;;;;;;;1.70;1.13;;;9.00;99.90;;;;;;5048478;28;20496;-74
2023/01/09 11:33:30;;;;;;;1.63;1.07;;;9.10;99.90;;;;;;5048827;28;20885;-74
2023/01/09 11:36:02;;;;;;;7.03;1.30;;;9.10;99.90;;;;;;5036376;28;20914;-74
2023/01/09 11:38:30;;;;;;;2.90;1.63;;;9.30;99.90;;;;;;5051599;28;20574;-75
2023/01/09 11:41:01;;;;;;;2.80;1.53;;;9.40;99.90;;;;;;5044642;28;20451;-75
2023/01/09 11:43:32;;;;;;;1.70;1.03;;;9.60;99.90;;;;;;5048686;28;20485;-74
2023/01/09 11:46:02;;;;;;;2.33;1.20;;;9.70;99.90;;;;;;5046417;28;20503;-74
2023/01/09 11:48:34;;;;;;;1.50;1.20;;;9.80;99.90;;;;;;5047122;28;20921;-75
2023/01/09 11:51:05;;;;;;;2.00;1.07;;;9.70;99.90;;;;;;5045761;28;20501;-75
2023/01/09 11:54:11;;;;;;;2.43;2.17;;;9.60;99.90;;;;;;5054155;28;20541;-75
2023/01/09 11:56:40;;;;;;;1.63;1.30;;;9.50;99.90;;;;;;5027843;28;20706;-74
2023/01/09 11:59:10;;;;;;;6.90;2.17;;;9.30;99.90;;;;;;5054258;28;21011;-73
2023/01/09 12:02:23;;;;;;;2.10;1.40;;;9.30;99.90;;;;;;5051122;28;20582;-76
2023/01/09 12:04:54;;;;;;;1.37;1.27;;;9.30;99.90;;;;;;5054060;28;20536;-75
2023/01/09 12:07:42;;;;;;;6.40;1.70;;;9.20;99.90;;;;;;5052467;28;20539;-73
2023/01/09 12:10:30;;;;;;;2.20;1.23;;;9.10;99.90;;;;;;5051944;28;20833;-74
2023/01/09 12:13:06;;;;;;;1.40;1.10;;;9.00;99.90;;;;;;5045796;28;20428;-74
2023/01/09 12:15:39;;;;;;;2.17;1.57;;;9.10;99.90;;;;;;5052099;28;20432;-74
2023/01/09 12:18:22;;;;;;;4.10;1.73;;;9.10;99.90;;;;;;5053090;28;21068;-75
2023/01/09 12:21:08;;;;;;;1.20;1.00;;;9.10;99.90;;;;;;5056491;28;20465;-73
2023/01/09 12:23:49;;;;;;;4.20;2.17;;;9.20;99.90;;;;;;5054924;28;20519;-75
2023/01/09 12:26:20;;;;;;;1.20;1.10;;;9.30;99.90;;;;;;5046768;28;20449;-77
2023/01/09 12:29:16;;;;;;;7.07;0.87;;;9.20;99.90;;;;;;5043451;28;20509;-75
2023/01/09 12:32:01;;;;;;;2.47;1.50;;;9.20;99.90;;;;;;5046089;28;20472;-75
2023/01/09 12:34:44;;;;;;;1.47;0.97;;;9.10;99.90;;;;;;5054169;28;20520;-75
2023/01/09 12:37:30;;;;;;;2.27;1.33;;;9.00;99.90;;;;;;5050453;28;20535;-75
2023/01/09 12:40:05;;;;;;;2.57;1.90;;;9.00;99.90;;;;;;5049050;28;20507;-75
2023/01/09 12:42:44;;;;;;;1.50;1.00;;;8.90;99.90;;;;;;5052514;28;20532;-74
2023/01/09 12:45:28;;;;;;;6.60;2.90;;;8.90;99.90;;;;;;5042447;28;20416;-74
2023/01/09 12:48:04;;;;;;;3.97;1.37;;;8.90;99.90;;;;;;5056619;28;20479;-75
2023/01/09 12:51:02;;;;;;;2.13;1.23;;;8.80;99.90;;;;;;5045651;28;20760;-74
2023/01/09 12:53:33;;;;;;;1.70;1.20;;;8.70;99.90;;;;;;5052368;28;20455;-74
2023/01/09 12:56:06;;;;;;;4.83;1.70;;;8.70;99.90;;;;;;5043120;28;20432;-74
2023/01/09 12:58:43;;;;;;;2.80;1.63;;;8.80;99.90;;;;;;5047614;28;20527;-74
2023/01/09 13:01:15;;;;;;;3.20;1.90;;;8.70;99.90;;;;;;5049917;28;20486;-74
2023/01/09 13:03:49;;;;;;;2.33;1.37;;;8.80;99.90;;;;;;5046716;28;20526;-74
2023/01/09 13:06:18;;;;;;;2.77;1.07;;;8.80;99.90;;;;;;5046300;28;20439;-74
2023/01/09 13:08:49;;;;;;;3.73;2.00;;;8.80;99.90;;;;;;5046983;28;20492;-74
2023/01/09 13:11:22;;;;;;;1.20;1.00;;;8.90;99.90;;;;;;5045108;28;20521;-74
2023/01/09 13:13:54;;;;;;;2.20;1.43;;;9.00;99.90;;;;;;5050202;28;20480;-75
2023/01/09 13:16:26;;;;;;;1.30;1.10;;;9.10;99.90;;;;;;5063340;28;20476;-74
2023/01/09 13:18:59;;;;;;;6.40;2.00;;;9.00;99.90;;;;;;5044488;28;20527;-74
2023/01/09 13:21:30;;;;;;;7.33;2.77;;;9.00;99.90;;;;;;5046218;28;20448;-74
2023/01/09 13:24:03;;;;;;;1.50;1.40;;;8.90;99.90;;;;;;5044721;28;20495;-74
2023/01/09 13:26:34;;;;;;;1.73;1.20;;;8.80;99.90;;;;;;5049178;28;20964;-74
2023/01/09 13:29:09;;;;;;;1.63;0.90;;;8.80;99.90;;;;;;5054149;28;20524;-74
2023/01/09 13:31:56;;;;;;;1.37;1.10;;;8.90;99.90;;;;;;5051931;28;20544;-74
2023/01/09 13:34:29;;;;;;;4.53;1.47;;;8.90;99.90;;;;;;5059117;28;20454;-75